Time;durP1;ratioP1;P1;durP2;ratioP2;P2;SDS_P1;SDS_P2;PMS_P1;PMS_P2;Temp;Humidity;BMP_temperature;BMP_pressure;BME280_temperature;BME280_humidity;BME280_pressure;Samples;Min_cycle;Max_cycle;Signal;HPM_P1;HPM_P2
2022/07/09 00:02:08;;;;;;;2.43;1.80;;;13.80;99.90;;;;;;7386061;19;20365;-78
2022/07/09 00:04:34;;;;;;;2.55;1.70;;;13.70;99.90;;;;;;7385891;19;20330;-80
2022/07/09 00:07:00;;;;;;;1.60;1.50;;;13.70;99.90;;;;;;7378194;19;21076;-80
2022/07/09 00:09:25;;;;;;;2.58;1.80;;;13.80;99.90;;;;;;7385444;19;20314;-80
2022/07/09 00:11:52;;;;;;;2.72;1.75;;;13.80;99.90;;;;;;7385557;19;20409;-81
2022/07/09 00:14:17;;;;;;;1.63;1.52;;;13.80;99.90;;;;;;7385424;19;20320;-81
2022/07/09 00:16:43;;;;;;;2.25;1.60;;;13.70;99.90;;;;;;7381713;19;20448;-80
2022/07/09 00:19:09;;;;;;;2.00;1.60;;;13.60;99.90;;;;;;7386736;19;20345;-79
2022/07/09 00:21:34;;;;;;;1.40;1.30;;;13.70;99.90;;;;;;7385043;19;20343;-80
2022/07/09 00:24:00;;;;;;;1.67;1.58;;;13.70;99.90;;;;;;7385104;19;20395;-79
2022/07/09 00:26:25;;;;;;;2.40;1.73;;;13.70;99.90;;;;;;7382064;19;20341;-81
2022/07/09 00:28:51;;;;;;;2.10;1.80;;;13.70;99.90;;;;;;7387112;19;20339;-81
2022/07/09 00:31:16;;;;;;;1.70;1.60;;;13.70;99.90;;;;;;7383318;19;20324;-81
2022/07/09 00:33:42;;;;;;;2.10;1.90;;;13.70;99.90;;;;;;7387157;19;20875;-81
2022/07/09 00:36:07;;;;;;;2.70;1.90;;;13.60;99.90;;;;;;7378725;19;20365;-79
2022/07/09 00:38:33;;;;;;;1.75;1.65;;;13.60;99.90;;;;;;7388707;19;20352;-82
2022/07/09 00:40:59;;;;;;;2.87;1.60;;;13.60;99.90;;;;;;7386740;19;20324;-80
2022/07/09 00:43:24;;;;;;;2.17;1.80;;;13.60;99.90;;;;;;7386778;19;20301;-81
2022/07/09 00:45:50;;;;;;;1.85;1.75;;;13.60;99.90;;;;;;7383077;19;20424;-80
2022/07/09 00:48:16;;;;;;;1.83;1.70;;;13.50;99.90;;;;;;7388839;19;20313;-80
2022/07/09 00:50:42;;;;;;;2.10;1.90;;;13.50;99.90;;;;;;7384918;19;20316;-82
2022/07/09 00:53:09;;;;;;;2.03;1.92;;;13.40;99.90;;;;;;7385096;19;20340;-80
2022/07/09 00:55:35;;;;;;;2.22;1.90;;;13.40;99.90;;;;;;7380564;19;20340;-81
2022/07/09 00:58:02;;;;;;;2.35;1.92;;;13.50;99.90;;;;;;7385399;19;20344;-80
2022/07/09 01:00:27;;;;;;;2.13;1.88;;;13.40;99.90;;;;;;7385413;19;20361;-81
2022/07/09 01:02:53;;;;;;;2.03;1.83;;;13.40;99.90;;;;;;7386915;19;20329;-80
2022/07/09 01:05:18;;;;;;;1.70;1.60;;;13.30;99.90;;;;;;7381503;19;20312;-80
2022/07/09 01:07:44;;;;;;;1.98;1.88;;;13.30;99.90;;;;;;7383867;19;20557;-79
2022/07/09 01:10:10;;;;;;;2.40;1.70;;;13.40;99.90;;;;;;7385361;19;20325;-81
2022/07/09 01:12:35;;;;;;;1.60;1.50;;;13.20;99.90;;;;;;7385374;19;20328;-80
2022/07/09 01:15:01;;;;;;;2.17;1.77;;;13.20;99.90;;;;;;7381141;19;20353;-78
2022/07/09 01:17:26;;;;;;;2.20;1.80;;;13.20;99.90;;;;;;7385753;19;20352;-83
2022/07/09 01:19:54;;;;;;;1.90;1.80;;;13.20;99.90;;;;;;7384212;19;20341;-80
2022/07/09 01:22:19;;;;;;;2.05;1.85;;;13.20;99.90;;;;;;7383222;19;20659;-81
2022/07/09 01:24:45;;;;;;;2.93;1.63;;;13.20;99.90;;;;;;7384220;19;20321;-81
2022/07/09 01:27:10;;;;;;;1.80;1.70;;;13.10;99.90;;;;;;7382087;19;20364;-80
2022/07/09 01:29:36;;;;;;;1.70;1.60;;;13.10;99.90;;;;;;7384874;19;20345;-83
2022/07/09 01:32:02;;;;;;;1.93;1.80;;;13.10;99.90;;;;;;7382888;19;20671;-82
2022/07/09 01:34:27;;;;;;;2.22;1.70;;;13.10;99.90;;;;;;7383795;19;20356;-80
2022/07/09 01:36:53;;;;;;;1.80;1.70;;;13.00;99.90;;;;;;7382747;19;20320;-80
2022/07/09 01:39:18;;;;;;;2.40;1.80;;;13.00;99.90;;;;;;7385987;19;20315;-83
2022/07/09 01:41:44;;;;;;;1.70;1.60;;;13.00;99.90;;;;;;7384284;19;20326;-80
2022/07/09 01:44:10;;;;;;;2.30;2.10;;;12.90;99.90;;;;;;7386200;19;20970;-80
2022/07/09 01:46:35;;;;;;;1.63;1.52;;;12.90;99.90;;;;;;7380790;19;20341;-80
2022/07/09 01:49:01;;;;;;;1.80;1.70;;;12.90;99.90;;;;;;7385079;19;20352;-80
2022/07/09 01:51:26;;;;;;;2.27;1.90;;;12.80;99.90;;;;;;7384024;19;20345;-80
2022/07/09 01:53:52;;;;;;;2.10;1.70;;;12.90;99.90;;;;;;7384183;19;20353;-80
2022/07/09 01:56:17;;;;;;;1.80;1.70;;;12.80;99.90;;;;;;7380993;19;20319;-81
2022/07/09 01:58:44;;;;;;;1.70;1.60;;;12.80;99.90;;;;;;7385800;19;20871;-82
2022/07/09 02:01:09;;;;;;;1.92;1.83;;;12.70;99.90;;;;;;7381524;19;20348;-80
2022/07/09 02:03:35;;;;;;;2.45;2.25;;;12.70;99.90;;;;;;7384483;19;20319;-80
2022/07/09 02:06:01;;;;;;;2.10;1.70;;;12.70;99.90;;;;;;7377968;19;20345;-80
2022/07/09 02:08:27;;;;;;;2.80;2.05;;;12.70;99.90;;;;;;7384676;19;20356;-80
2022/07/09 02:10:54;;;;;;;2.13;1.93;;;12.60;99.90;;;;;;7382012;19;20354;-80
2022/07/09 02:13:20;;;;;;;2.95;2.30;;;12.50;99.90;;;;;;7385718;19;20305;-81
2022/07/09 02:15:45;;;;;;;2.03;1.92;;;12.60;99.90;;;;;;7381567;19;20335;-82
2022/07/09 02:18:12;;;;;;;2.43;2.20;;;12.60;99.90;;;;;;7383451;19;20764;-80
2022/07/09 02:20:38;;;;;;;2.45;2.25;;;12.60;99.90;;;;;;7380165;19;20655;-81
2022/07/09 02:23:03;;;;;;;2.30;2.10;;;12.50;99.90;;;;;;7384004;19;20332;-81
2022/07/09 02:25:29;;;;;;;2.47;2.05;;;12.50;99.90;;;;;;7377862;19;20428;-80
2022/07/09 02:27:55;;;;;;;2.10;2.00;;;12.50;99.90;;;;;;7384983;19;20350;-81
2022/07/09 02:30:20;;;;;;;2.00;1.90;;;12.50;99.90;;;;;;7381883;19;20305;-82
2022/07/09 02:32:46;;;;;;;2.20;2.10;;;12.50;99.90;;;;;;7383613;19;20670;-81
2022/07/09 02:35:11;;;;;;;2.57;2.37;;;12.50;99.90;;;;;;7379233;19;20348;-81
2022/07/09 02:37:37;;;;;;;3.28;2.58;;;12.50;99.90;;;;;;7382548;19;20372;-81
2022/07/09 02:40:04;;;;;;;2.40;2.20;;;12.50;99.90;;;;;;7382117;19;20300;-81
2022/07/09 02:42:30;;;;;;;2.42;2.22;;;12.50;99.90;;;;;;7379929;19;20673;-81
2022/07/09 02:44:55;;;;;;;2.40;2.20;;;12.50;99.90;;;;;;7380716;19;20305;-81
2022/07/09 02:47:21;;;;;;;2.25;2.00;;;12.40;99.90;;;;;;7381037;19;20316;-81
2022/07/09 02:49:46;;;;;;;2.50;2.30;;;12.40;99.90;;;;;;7382937;19;20951;-82
2022/07/09 02:52:12;;;;;;;2.53;2.33;;;12.40;99.90;;;;;;7378421;19;20335;-81
2022/07/09 02:54:37;;;;;;;2.60;2.40;;;12.40;99.90;;;;;;7382884;19;20344;-81
2022/07/09 02:57:03;;;;;;;2.77;2.40;;;12.40;99.90;;;;;;7378777;19;20344;-82
2022/07/09 02:59:29;;;;;;;2.97;2.60;;;12.40;99.90;;;;;;7381647;19;21056;-81
2022/07/09 03:01:55;;;;;;;2.77;2.57;;;12.40;99.90;;;;;;7380846;19;20373;-81
2022/07/09 03:04:20;;;;;;;2.75;2.47;;;12.40;99.90;;;;;;7381498;19;20320;-82
2022/07/09 03:06:47;;;;;;;3.10;2.40;;;12.30;99.90;;;;;;7378154;19;20882;-81
2022/07/09 03:09:13;;;;;;;2.90;2.70;;;12.40;99.90;;;;;;7381818;19;20370;-81
2022/07/09 03:11:38;;;;;;;3.13;2.43;;;12.40;99.90;;;;;;7379753;19;21026;-81
2022/07/09 03:14:04;;;;;;;2.47;2.27;;;12.40;99.90;;;;;;7380831;19;20337;-83
2022/07/09 03:16:29;;;;;;;2.20;2.10;;;12.40;99.90;;;;;;7378426;19;20356;-81
2022/07/09 03:18:55;;;;;;;2.57;2.37;;;12.40;99.90;;;;;;7381681;19;20344;-82
2022/07/09 03:21:21;;;;;;;2.42;2.22;;;12.40;99.90;;;;;;7381537;19;20903;-81
2022/07/09 03:23:46;;;;;;;2.60;2.10;;;12.40;99.90;;;;;;7388008;19;20368;-81
2022/07/09 03:26:12;;;;;;;2.50;2.30;;;12.40;99.90;;;;;;7384360;19;20320;-82
2022/07/09 03:28:38;;;;;;;1.83;1.73;;;12.50;99.90;;;;;;7388690;19;20376;-84
2022/07/09 03:31:04;;;;;;;2.00;1.90;;;12.50;99.90;;;;;;7384266;19;20316;-80
2022/07/09 03:33:29;;;;;;;2.40;2.20;;;12.50;99.90;;;;;;7388045;19;20344;-81
2022/07/09 03:35:55;;;;;;;3.60;2.40;;;12.50;99.90;;;;;;7386051;19;20334;-81
2022/07/09 03:38:21;;;;;;;2.13;1.90;;;12.60;99.90;;;;;;7387212;19;20683;-82
2022/07/09 03:40:47;;;;;;;2.42;2.22;;;12.50;99.90;;;;;;7386103;19;21160;-83
2022/07/09 03:43:12;;;;;;;2.40;2.20;;;12.50;99.90;;;;;;7379947;19;20356;-84
2022/07/09 03:45:38;;;;;;;2.20;2.08;;;12.60;99.90;;;;;;7382772;19;20340;-84
2022/07/09 03:48:04;;;;;;;3.00;2.67;;;12.60;99.90;;;;;;7387080;19;20370;-82
2022/07/09 03:50:29;;;;;;;2.50;2.30;;;12.60;99.90;;;;;;7386440;19;20308;-83
2022/07/09 03:52:55;;;;;;;2.53;2.33;;;12.60;99.90;;;;;;7388557;19;20317;-82
2022/07/09 03:55:20;;;;;;;3.45;2.65;;;12.60;99.90;;;;;;7385030;19;20309;-81
2022/07/09 03:57:46;;;;;;;3.20;2.90;;;12.70;99.90;;;;;;7386944;19;20328;-82
2022/07/09 04:00:12;;;;;;;3.63;2.73;;;12.70;99.90;;;;;;7388462;19;20984;-84
2022/07/09 04:02:42;;;;;;;2.53;2.33;;;12.70;99.90;;;;;;7387658;19;20803;-82
2022/07/09 04:05:08;;;;;;;2.93;2.60;;;12.70;99.90;;;;;;7386039;19;20341;-85
2022/07/09 04:07:34;;;;;;;3.97;2.67;;;12.80;99.90;;;;;;7388637;19;20356;-85
2022/07/09 04:10:00;;;;;;;3.78;3.22;;;12.80;99.90;;;;;;7386114;19;20336;-82
2022/07/09 04:12:26;;;;;;;2.90;2.70;;;12.70;99.90;;;;;;7388688;19;20316;-82
2022/07/09 04:14:51;;;;;;;3.75;2.90;;;12.70;99.90;;;;;;7384616;19;20327;-85
2022/07/09 04:17:17;;;;;;;2.93;2.73;;;12.70;99.90;;;;;;7387867;19;20707;-81
2022/07/09 04:19:42;;;;;;;4.17;2.87;;;12.80;99.90;;;;;;7387254;19;20361;-82
2022/07/09 04:22:08;;;;;;;3.20;2.75;;;12.80;99.90;;;;;;7385984;19;20325;-82
2022/07/09 04:24:33;;;;;;;5.33;3.20;;;12.90;99.90;;;;;;7388253;19;20351;-82
2022/07/09 04:26:59;;;;;;;3.07;2.77;;;12.90;99.90;;;;;;7384484;19;20783;-83
2022/07/09 04:29:25;;;;;;;3.05;2.70;;;12.90;99.90;;;;;;7388256;19;20345;-83
2022/07/09 04:31:50;;;;;;;3.00;2.67;;;13.10;99.90;;;;;;7384860;19;20312;-80
2022/07/09 04:34:16;;;;;;;3.30;3.00;;;13.10;99.90;;;;;;7383431;19;21357;-81
2022/07/09 04:36:41;;;;;;;4.18;2.90;;;13.10;99.90;;;;;;7381068;19;20340;-81
2022/07/09 04:39:07;;;;;;;3.47;2.67;;;13.20;99.90;;;;;;7386572;19;21152;-81
2022/07/09 04:41:34;;;;;;;5.80;3.00;;;13.20;99.90;;;;;;7386591;19;20774;-85
2022/07/09 04:43:59;;;;;;;2.63;2.42;;;13.30;99.90;;;;;;7387631;19;20317;-84
2022/07/09 04:46:27;;;;;;;4.30;2.60;;;13.40;99.90;;;;;;7385833;19;20300;-81
2022/07/09 04:48:53;;;;;;;3.25;2.95;;;13.50;99.90;;;;;;7388225;19;20410;-81
2022/07/09 04:51:18;;;;;;;3.50;2.73;;;13.50;99.90;;;;;;7385625;19;20304;-81
2022/07/09 04:53:44;;;;;;;5.25;2.80;;;13.50;99.90;;;;;;7387838;19;20394;-81
2022/07/09 04:56:09;;;;;;;3.73;2.73;;;13.50;99.90;;;;;;7381452;19;20339;-84
2022/07/09 04:58:36;;;;;;;3.08;2.60;;;13.60;99.90;;;;;;7383267;19;20309;-80
2022/07/09 05:01:03;;;;;;;5.55;2.58;;;13.70;99.90;;;;;;7384064;19;20308;-82
2022/07/09 05:03:28;;;;;;;5.70;2.88;;;13.80;99.90;;;;;;7386790;19;20300;-82
2022/07/09 05:05:54;;;;;;;4.18;2.72;;;13.90;99.90;;;;;;7383379;19;20345;-82
2022/07/09 05:08:19;;;;;;;4.78;2.78;;;13.80;99.90;;;;;;7385836;19;20293;-83
2022/07/09 05:10:45;;;;;;;3.30;2.70;;;13.90;99.90;;;;;;7385444;19;20388;-81
2022/07/09 05:13:10;;;;;;;6.57;2.80;;;13.90;99.90;;;;;;7384426;19;20331;-81
2022/07/09 05:15:36;;;;;;;4.37;2.90;;;13.80;99.90;;;;;;7382963;19;20386;-82
2022/07/09 05:18:02;;;;;;;4.90;2.90;;;14.00;99.90;;;;;;7384792;19;20384;-85
2022/07/09 05:20:27;;;;;;;3.53;2.63;;;13.90;99.90;;;;;;7385909;19;20333;-83
2022/07/09 05:22:53;;;;;;;3.90;2.80;;;14.00;99.90;;;;;;7388448;19;20328;-82
2022/07/09 05:25:19;;;;;;;4.18;2.88;;;14.00;99.90;;;;;;7380132;19;20316;-84
2022/07/09 05:27:45;;;;;;;4.45;3.10;;;14.10;99.90;;;;;;7384178;19;21140;-82
2022/07/09 05:30:12;;;;;;;5.20;3.10;;;14.10;99.90;;;;;;7381151;19;20354;-83
2022/07/09 05:32:38;;;;;;;5.18;3.17;;;14.10;99.90;;;;;;7384007;19;20984;-81
2022/07/09 05:35:04;;;;;;;3.17;2.80;;;14.00;99.90;;;;;;7380975;19;20404;-81
2022/07/09 05:37:29;;;;;;;4.40;2.88;;;14.00;99.90;;;;;;7378417;19;20394;-82
2022/07/09 05:39:58;;;;;;;3.25;2.95;;;14.10;99.90;;;;;;7386126;19;20316;-83
2022/07/09 05:42:24;;;;;;;4.00;3.00;;;14.10;99.90;;;;;;7385131;19;20308;-82
2022/07/09 05:44:49;;;;;;;3.97;3.10;;;14.00;99.90;;;;;;7382188;19;21222;-80
2022/07/09 05:47:15;;;;;;;3.25;2.70;;;14.10;99.90;;;;;;7379186;19;20346;-82
2022/07/09 05:49:41;;;;;;;5.03;3.45;;;14.10;99.90;;;;;;7383256;19;20353;-83
2022/07/09 05:52:07;;;;;;;4.88;3.00;;;14.10;99.90;;;;;;7382733;19;20302;-81
2022/07/09 05:54:32;;;;;;;3.10;2.80;;;14.20;99.90;;;;;;7383074;19;21286;-84
2022/07/09 05:56:58;;;;;;;3.17;2.72;;;14.20;99.90;;;;;;7377325;19;20359;-81
2022/07/09 05:59:23;;;;;;;5.03;3.17;;;14.20;99.90;;;;;;7382960;19;20677;-80
2022/07/09 06:01:49;;;;;;;3.80;3.00;;;14.10;99.90;;;;;;7378991;19;20300;-80
2022/07/09 06:04:15;;;;;;;3.53;2.60;;;14.00;99.90;;;;;;7381570;19;20421;-81
2022/07/09 06:06:40;;;;;;;4.30;2.80;;;14.00;99.90;;;;;;7376440;19;20324;-80
2022/07/09 06:09:06;;;;;;;3.33;2.72;;;14.00;99.90;;;;;;7379339;19;20361;-80
2022/07/09 06:11:32;;;;;;;3.33;3.03;;;14.10;99.90;;;;;;7373880;19;20447;-81
2022/07/09 06:13:57;;;;;;;4.32;2.88;;;14.00;99.90;;;;;;7375604;19;20471;-81
2022/07/09 06:16:23;;;;;;;3.63;2.97;;;13.90;99.90;;;;;;7368028;19;20345;-80
2022/07/09 06:18:49;;;;;;;3.38;2.63;;;13.90;99.90;;;;;;7374385;19;20437;-82
2022/07/09 06:21:14;;;;;;;2.80;2.60;;;13.80;99.90;;;;;;7380884;19;20304;-81
2022/07/09 06:23:40;;;;;;;3.67;2.88;;;13.80;99.90;;;;;;7383220;19;20340;-81
2022/07/09 06:26:05;;;;;;;3.10;2.60;;;13.90;99.90;;;;;;7376515;19;20329;-80
2022/07/09 06:28:31;;;;;;;3.40;2.70;;;13.90;99.90;;;;;;7377919;19;20341;-82
2022/07/09 06:30:57;;;;;;;2.67;2.47;;;13.90;99.90;;;;;;7379446;19;20312;-80
2022/07/09 06:33:22;;;;;;;4.03;2.83;;;13.90;99.90;;;;;;7374726;19;21345;-80
2022/07/09 06:35:48;;;;;;;3.33;2.50;;;13.90;99.90;;;;;;7369353;19;20337;-80
2022/07/09 06:38:13;;;;;;;3.50;3.00;;;13.90;99.90;;;;;;7370164;19;20340;-80
2022/07/09 06:40:39;;;;;;;4.47;2.90;;;13.80;99.90;;;;;;7367390;19;20432;-80
2022/07/09 06:43:05;;;;;;;3.03;2.47;;;13.80;99.90;;;;;;7367500;19;20348;-79
2022/07/09 06:49:10;;;;;;;4.78;2.83;;;14.00;99.90;;;;;;7141548;19;2004584;-80
2022/07/09 06:51:36;;;;;;;3.05;2.58;;;14.20;99.90;;;;;;7367244;19;20341;-79
2022/07/09 06:54:01;;;;;;;4.00;3.03;;;14.30;99.90;;;;;;7369111;19;20373;-82
2022/07/09 06:56:27;;;;;;;2.80;2.55;;;14.30;99.90;;;;;;7367622;19;20329;-81
2022/07/09 06:58:52;;;;;;;4.27;2.80;;;14.30;99.90;;;;;;7378975;19;22019;-82
2022/07/09 07:01:18;;;;;;;4.23;3.00;;;14.40;99.90;;;;;;7378003;19;20309;-80
2022/07/09 07:03:43;;;;;;;4.53;3.55;;;14.40;99.90;;;;;;7373853;19;20986;-79
2022/07/09 07:06:09;;;;;;;3.53;3.00;;;14.40;99.90;;;;;;7376197;19;20376;-80
2022/07/09 07:08:34;;;;;;;4.93;3.90;;;14.10;99.90;;;;;;7376222;19;20348;-80
2022/07/09 07:11:00;;;;;;;4.65;3.85;;;14.30;99.90;;;;;;7377184;19;21056;-80
2022/07/09 07:13:26;;;;;;;4.73;3.50;;;14.40;99.90;;;;;;7378010;19;20356;-82
2022/07/09 07:15:51;;;;;;;4.97;3.67;;;14.50;99.90;;;;;;7376431;19;20346;-81
2022/07/09 07:18:17;;;;;;;4.07;3.40;;;14.60;99.90;;;;;;7377226;19;20356;-82
2022/07/09 07:20:43;;;;;;;4.63;3.30;;;14.70;99.90;;;;;;7379286;19;20332;-81
2022/07/09 07:23:08;;;;;;;5.03;3.33;;;14.90;99.90;;;;;;7382506;19;20324;-82
2022/07/09 07:25:34;;;;;;;3.97;3.20;;;15.10;99.90;;;;;;7386470;19;20331;-83
2022/07/09 07:28:01;;;;;;;4.20;2.78;;;15.30;99.90;;;;;;7383638;19;20891;-82
2022/07/09 07:30:26;;;;;;;2.78;2.45;;;15.50;99.90;;;;;;7383309;19;20864;-81
2022/07/09 07:32:52;;;;;;;4.20;2.53;;;15.80;99.90;;;;;;7378027;19;20359;-81
2022/07/09 07:35:18;;;;;;;3.28;2.30;;;15.90;99.90;;;;;;7381349;19;20412;-81
2022/07/09 07:37:43;;;;;;;2.53;2.17;;;16.10;99.90;;;;;;7381982;19;20369;-82
2022/07/09 07:40:09;;;;;;;2.42;2.13;;;16.40;99.90;;;;;;7383783;19;21209;-81
2022/07/09 07:42:35;;;;;;;5.43;2.70;;;16.60;99.90;;;;;;7385057;19;20346;-82
2022/07/09 07:45:01;;;;;;;2.93;2.30;;;16.60;99.90;;;;;;7386197;19;20322;-81
2022/07/09 07:47:26;;;;;;;4.60;2.23;;;16.70;99.90;;;;;;7381875;19;20361;-81
2022/07/09 07:49:52;;;;;;;6.78;2.65;;;16.80;99.90;;;;;;7382024;19;20863;-81
2022/07/09 07:52:18;;;;;;;3.92;1.92;;;16.80;99.90;;;;;;7385172;19;20313;-84
2022/07/09 07:54:43;;;;;;;4.85;2.40;;;17.10;99.90;;;;;;7382942;19;20332;-83
2022/07/09 07:57:09;;;;;;;2.17;1.87;;;17.40;99.90;;;;;;7379715;19;20332;-83
2022/07/09 07:59:34;;;;;;;2.20;2.00;;;17.10;99.90;;;;;;7383668;19;21118;-81
2022/07/09 08:02:00;;;;;;;2.70;1.90;;;17.20;99.90;;;;;;7382767;19;20361;-82
2022/07/09 08:04:26;;;;;;;2.23;2.00;;;17.30;99.90;;;;;;7381165;19;20336;-81
2022/07/09 08:10:27;;;;;;;2.27;2.00;;;17.70;99.90;;;;;;7394764;19;20331;-85
2022/07/09 08:12:52;;;;;;;2.50;2.10;;;17.70;99.90;;;;;;7397519;19;20317;-87
2022/07/09 08:15:18;;;;;;;2.77;2.00;;;18.00;99.90;;;;;;7393259;19;20710;-82
2022/07/09 08:17:44;;;;;;;3.65;2.15;;;17.90;99.90;;;;;;7393608;19;20316;-83
2022/07/09 08:20:10;;;;;;;2.30;1.95;;;17.70;99.90;;;;;;7396051;19;20343;-83
2022/07/09 08:22:36;;;;;;;3.35;1.95;;;17.70;99.90;;;;;;7399880;19;20320;-88
2022/07/09 08:25:03;;;;;;;2.78;2.17;;;17.70;99.90;;;;;;7395232;19;20333;-83
2022/07/09 08:27:31;;;;;;;2.60;1.75;;;17.70;99.90;;;;;;7404943;19;20316;-90
2022/07/09 08:29:59;;;;;;;3.73;2.00;;;17.70;99.90;;;;;;7392346;19;20343;-84
2022/07/09 08:32:25;;;;;;;2.10;1.90;;;17.00;99.90;;;;;;7405647;19;20300;-85
2022/07/09 08:34:50;;;;;;;4.25;2.13;;;16.80;99.90;;;;;;7391457;19;20301;-82
2022/07/09 08:37:16;;;;;;;5.20;2.33;;;17.00;99.90;;;;;;7410332;19;20324;-82
2022/07/09 08:39:42;;;;;;;2.25;1.90;;;16.90;99.90;;;;;;7376560;19;20296;-83
2022/07/09 08:42:10;;;;;;;2.38;2.15;;;17.00;99.90;;;;;;7388273;19;20352;-84
2022/07/09 08:44:37;;;;;;;2.60;2.00;;;17.30;99.90;;;;;;7390155;19;20697;-80
2022/07/09 08:47:03;;;;;;;3.55;1.90;;;17.30;99.90;;;;;;7384483;19;20401;-81
2022/07/09 08:49:28;;;;;;;6.00;1.83;;;17.60;99.90;;;;;;7383637;19;20348;-79
2022/07/09 08:51:55;;;;;;;2.47;1.88;;;17.70;99.90;;;;;;7386753;19;20346;-79
2022/07/09 08:54:20;;;;;;;2.38;1.90;;;17.80;99.90;;;;;;7388023;19;21131;-80
2022/07/09 08:56:46;;;;;;;4.03;2.30;;;17.90;99.90;;;;;;7387283;19;20336;-79
2022/07/09 08:59:11;;;;;;;2.10;1.90;;;18.20;99.90;;;;;;7386448;19;20351;-80
2022/07/09 09:01:37;;;;;;;4.80;2.30;;;18.10;99.90;;;;;;7388561;19;20355;-80
2022/07/09 09:04:03;;;;;;;2.50;2.30;;;18.10;99.90;;;;;;7385883;19;20366;-79
2022/07/09 09:06:28;;;;;;;2.40;2.20;;;18.00;99.90;;;;;;7385607;19;20344;-78
2022/07/09 09:08:55;;;;;;;3.43;2.30;;;18.00;99.90;;;;;;7386799;19;20365;-80
2022/07/09 09:11:22;;;;;;;3.95;2.13;;;18.20;99.90;;;;;;7396132;19;20425;-82
2022/07/09 09:13:48;;;;;;;2.45;2.25;;;18.40;99.90;;;;;;7398216;19;20357;-83
2022/07/09 09:16:16;;;;;;;2.20;2.00;;;18.50;99.90;;;;;;7395888;19;20394;-83
2022/07/09 09:18:46;;;;;;;2.33;2.00;;;18.40;99.90;;;;;;7393651;19;20933;-83
2022/07/09 09:21:12;;;;;;;4.10;2.53;;;18.40;99.90;;;;;;7394061;19;20324;-88
2022/07/09 09:23:41;;;;;;;3.58;2.35;;;18.60;99.90;;;;;;7397422;19;20673;-84
2022/07/09 09:26:16;;;;;;;4.15;2.25;;;18.70;99.90;;;;;;7394957;19;20325;-83
2022/07/09 09:28:52;;;;;;;2.65;2.22;;;18.50;99.90;;;;;;7394786;19;20805;-83
2022/07/09 09:31:36;;;;;;;2.72;2.50;;;18.10;99.90;;;;;;7393108;19;20347;-85
2022/07/09 09:34:04;;;;;;;3.38;2.30;;;18.10;99.90;;;;;;7293846;19;2004476;-84
2022/07/09 09:36:37;;;;;;;2.92;2.30;;;18.20;99.90;;;;;;7398851;19;20440;-86
2022/07/09 09:39:18;;;;;;;2.55;2.20;;;18.20;99.90;;;;;;7400501;19;20352;-89
2022/07/09 09:42:02;;;;;;;3.20;2.50;;;17.70;99.90;;;;;;7398081;19;20335;-84
2022/07/09 09:44:40;;;;;;;3.28;2.42;;;17.80;99.90;;;;;;7391911;19;20348;-83
2022/07/09 09:47:07;;;;;;;2.60;2.17;;;17.70;99.90;;;;;;7289949;19;2004334;-85
2022/07/09 09:49:33;;;;;;;4.20;2.45;;;17.80;99.90;;;;;;7399669;19;20320;-88
2022/07/09 09:52:05;;;;;;;3.80;2.30;;;17.80;99.90;;;;;;7398022;19;20361;-84
2022/07/09 09:54:32;;;;;;;2.88;2.35;;;17.80;99.90;;;;;;7401035;19;20307;-88
2022/07/09 09:56:58;;;;;;;2.60;2.40;;;18.00;99.90;;;;;;7406432;19;20321;-83
2022/07/09 09:59:24;;;;;;;3.10;2.33;;;18.30;99.90;;;;;;7400724;19;20297;-82
2022/07/09 10:01:49;;;;;;;3.33;2.05;;;18.70;99.90;;;;;;7399684;19;20321;-90
2022/07/09 10:04:15;;;;;;;4.83;2.30;;;18.90;99.90;;;;;;7400585;19;20917;-90
2022/07/09 10:06:41;;;;;;;2.60;2.40;;;18.80;99.90;;;;;;7398284;19;20348;-83
2022/07/09 10:09:07;;;;;;;3.17;2.30;;;19.10;99.90;;;;;;7395011;19;20344;-84
2022/07/09 10:11:43;;;;;;;2.47;2.22;;;19.30;99.90;;;;;;7394117;19;20308;-83
2022/07/09 10:14:14;;;;;;;2.67;2.28;;;19.50;99.90;;;;;;7384887;19;20308;-82
2022/07/09 10:16:40;;;;;;;2.45;2.05;;;19.60;99.90;;;;;;7388492;19;21009;-82
2022/07/09 10:19:06;;;;;;;3.80;2.40;;;19.90;99.90;;;;;;7390678;19;20404;-87
2022/07/09 10:21:36;;;;;;;2.60;2.10;;;20.00;99.90;;;;;;7391671;19;20301;-82
2022/07/09 10:24:05;;;;;;;3.22;2.10;;;19.60;99.90;;;;;;7389615;19;20324;-83
2022/07/09 10:26:41;;;;;;;2.00;1.80;;;19.50;99.90;;;;;;7391935;19;20336;-85
2022/07/09 10:29:24;;;;;;;2.63;2.15;;;20.00;99.90;;;;;;7393743;19;20346;-84
2022/07/09 10:31:50;;;;;;;3.50;1.90;;;20.00;99.90;;;;;;7391760;19;20322;-88
2022/07/09 10:34:40;;;;;;;2.97;2.10;;;20.30;99.90;;;;;;7390724;19;20903;-83
2022/07/09 10:37:06;;;;;;;2.50;2.10;;;19.90;99.90;;;;;;7294105;19;2009146;-85
2022/07/09 10:39:32;;;;;;;2.20;2.00;;;19.90;99.90;;;;;;7377366;19;20320;-85
2022/07/09 10:42:04;;;;;;;2.85;1.63;;;20.20;99.90;;;;;;7396423;19;20773;-85
2022/07/09 10:44:36;;;;;;;3.13;2.03;;;20.10;99.90;;;;;;7290095;19;2004268;-87
2022/07/09 10:47:05;;;;;;;3.10;2.00;;;20.30;99.90;;;;;;7394734;19;20350;-85
2022/07/09 10:49:36;;;;;;;2.40;1.70;;;20.30;99.90;;;;;;7394023;19;20315;-86
2022/07/09 10:52:03;;;;;;;1.92;1.70;;;20.20;99.90;;;;;;7399476;19;20341;-86
2022/07/09 10:54:30;;;;;;;1.92;1.70;;;19.90;99.90;;;;;;7397227;19;20309;-88
2022/07/09 10:56:58;;;;;;;1.92;1.63;;;20.20;99.90;;;;;;7401849;19;20338;-87
2022/07/09 10:59:27;;;;;;;2.08;1.80;;;20.50;99.90;;;;;;7400441;19;20389;-87
2022/07/09 11:01:55;;;;;;;2.07;1.67;;;20.60;99.90;;;;;;7377839;19;20320;-91
2022/07/09 11:04:31;;;;;;;2.50;1.83;;;20.80;99.90;;;;;;7395140;19;20308;-87
2022/07/09 11:06:57;;;;;;;3.53;1.80;;;21.10;99.90;;;;;;7396859;19;20608;-86
2022/07/09 11:09:22;;;;;;;1.60;1.40;;;21.10;99.90;;;;;;7393473;19;20323;-84
2022/07/09 11:11:48;;;;;;;1.50;1.40;;;21.10;99.90;;;;;;7371724;19;20344;-87
2022/07/09 11:14:14;;;;;;;2.03;1.48;;;21.00;99.90;;;;;;7400658;19;20328;-87
2022/07/09 11:16:40;;;;;;;2.10;1.50;;;21.00;99.90;;;;;;7399892;19;20426;-92
2022/07/09 11:19:18;;;;;;;1.65;1.55;;;20.80;99.90;;;;;;7402576;19;20309;-83
2022/07/09 11:21:44;;;;;;;3.20;1.67;;;20.60;99.90;;;;;;7398413;19;20320;-83
2022/07/09 11:24:18;;;;;;;1.50;1.40;;;19.80;99.90;;;;;;7401491;19;20333;-89
2022/07/09 11:26:44;;;;;;;1.60;1.50;;;19.80;99.90;;;;;;7401293;19;20421;-87
2022/07/09 11:29:10;;;;;;;1.80;1.50;;;20.00;99.90;;;;;;7399698;19;20316;-86
2022/07/09 11:31:36;;;;;;;3.08;1.45;;;20.00;99.90;;;;;;7378397;19;20331;-90
2022/07/09 11:34:11;;;;;;;1.73;1.63;;;19.80;99.90;;;;;;7404960;19;20328;-86
2022/07/09 11:36:38;;;;;;;2.40;1.60;;;19.80;99.90;;;;;;7367627;19;21014;-91
2022/07/09 11:39:04;;;;;;;1.83;1.65;;;19.60;99.90;;;;;;7402391;19;20340;-89
2022/07/09 11:41:42;;;;;;;2.00;1.70;;;19.60;99.90;;;;;;7404953;19;20308;-90
2022/07/09 11:44:15;;;;;;;2.88;1.52;;;19.70;99.90;;;;;;7411166;19;20372;-89
2022/07/09 11:46:44;;;;;;;2.08;1.60;;;19.80;99.90;;;;;;7387258;19;20348;-88
2022/07/09 11:49:16;;;;;;;2.60;1.67;;;19.70;99.90;;;;;;7411602;19;20354;-87
2022/07/09 11:51:42;;;;;;;2.10;1.90;;;19.90;99.90;;;;;;7411431;19;20320;-91
2022/07/09 11:54:08;;;;;;;1.80;1.70;;;19.80;99.90;;;;;;7387292;19;20312;-90
2022/07/09 11:56:45;;;;;;;2.50;1.70;;;19.60;99.90;;;;;;7400395;19;20336;-90
2022/07/09 11:59:11;;;;;;;2.90;1.60;;;19.20;99.90;;;;;;7388975;19;20356;-85
2022/07/09 12:01:38;;;;;;;1.60;1.50;;;19.00;99.90;;;;;;7382745;19;20327;-91
2022/07/09 12:04:04;;;;;;;2.58;1.60;;;19.10;99.90;;;;;;7410920;19;20337;-89
2022/07/09 12:06:30;;;;;;;1.53;1.40;;;19.00;99.90;;;;;;7413221;19;20345;-90
2022/07/09 12:09:02;;;;;;;1.33;1.23;;;19.10;99.90;;;;;;7388823;19;20380;-85
2022/07/09 12:11:29;;;;;;;1.45;1.35;;;19.20;99.90;;;;;;7404740;19;20335;-88
2022/07/09 12:13:55;;;;;;;1.90;1.50;;;19.50;99.90;;;;;;7409209;19;20349;-89
2022/07/09 12:16:21;;;;;;;2.25;1.80;;;19.50;99.90;;;;;;7410888;19;20323;-87
2022/07/09 12:18:46;;;;;;;1.67;1.57;;;19.30;99.90;;;;;;7409463;19;20352;-87
2022/07/09 12:21:12;;;;;;;2.10;1.48;;;19.60;99.90;;;;;;7410933;19;20340;-88
2022/07/09 12:23:41;;;;;;;2.85;1.50;;;20.40;99.90;;;;;;7386085;19;20341;-86
2022/07/09 12:26:07;;;;;;;1.50;1.40;;;21.00;99.90;;;;;;7402579;19;20331;-91
2022/07/09 12:28:34;;;;;;;2.58;1.42;;;21.10;99.90;;;;;;7394362;19;20353;-92
2022/07/09 12:30:59;;;;;;;2.10;1.50;;;21.20;99.90;;;;;;7410305;19;20372;-86
2022/07/09 12:33:30;;;;;;;2.13;1.65;;;21.70;99.90;;;;;;7382598;19;20309;-89
2022/07/09 12:35:56;;;;;;;1.48;1.20;;;22.40;99.90;;;;;;7408446;19;20312;-89
2022/07/09 12:38:22;;;;;;;2.13;1.50;;;22.50;99.90;;;;;;7412109;19;20304;-89
2022/07/09 12:40:48;;;;;;;1.40;1.30;;;23.00;99.90;;;;;;7410869;19;20341;-90
2022/07/09 12:43:13;;;;;;;1.75;1.40;;;23.30;99.90;;;;;;7410166;19;20413;-91
2022/07/09 12:45:39;;;;;;;1.77;1.50;;;23.40;99.90;;;;;;7409384;19;20313;-88
2022/07/09 12:48:05;;;;;;;2.00;1.37;;;23.60;99.90;;;;;;7412241;19;20435;-88
2022/07/09 12:50:30;;;;;;;1.25;1.15;;;24.30;99.90;;;;;;7408199;19;20410;-88